createdAt,value
2023-04-11T00:00:30.499Z,98061.78
2023-04-11T00:03:00.099Z,98063.81
2023-04-11T00:05:27.983Z,98072.50
2023-04-11T00:07:54.526Z,98077.97
2023-04-11T00:10:21.081Z,98065.59
2023-04-11T00:12:47.579Z,98055.84
2023-04-11T00:15:16.150Z,98064.97
2023-04-11T00:17:45.652Z,98067.81
2023-04-11T00:20:13.036Z,98070.03
2023-04-11T00:22:39.546Z,98075.06
2023-04-11T00:25:07.218Z,98065.38
2023-04-11T00:27:33.671Z,98077.31
2023-04-11T00:30:00.784Z,98074.47
2023-04-11T00:32:27.596Z,98085.00
2023-04-11T00:34:55.264Z,98091.22
2023-04-11T00:37:22.119Z,98085.13
2023-04-11T00:39:50.497Z,98080.22
2023-04-11T00:42:17.273Z,98076.94
2023-04-11T00:44:45.241Z,98073.88
2023-04-11T00:47:12.364Z,98065.75
2023-04-11T00:49:39.697Z,98071.00
2023-04-11T00:52:08.212Z,98078.38
2023-04-11T00:54:34.988Z,98081.13
2023-04-11T00:57:03.466Z,98071.41
2023-04-11T00:59:32.117Z,98066.97
2023-04-11T01:01:59.620Z,98066.88
2023-04-11T01:04:26.326Z,98051.75
2023-04-11T01:07:03.877Z,98058.41
2023-04-11T01:09:32.988Z,98061.03
2023-04-11T01:12:01.392Z,98074.34
2023-04-11T01:14:28.700Z,98077.28
2023-04-11T01:16:56.728Z,98080.19
2023-04-11T01:19:26.638Z,98078.06
2023-04-11T01:21:55.786Z,98074.91
2023-04-11T01:24:23.220Z,98082.19
2023-04-11T01:26:49.849Z,98085.72
2023-04-11T01:29:16.650Z,98088.19
2023-04-11T01:31:43.931Z,98084.50
2023-04-11T01:34:14.059Z,98087.28
2023-04-11T01:36:42.369Z,98098.44
2023-04-11T01:39:09.297Z,98094.59
2023-04-11T01:41:36.438Z,98091.09
2023-04-11T01:44:04.011Z,98079.75
2023-04-11T01:46:31.221Z,98083.25
2023-04-11T01:49:00.332Z,98075.44
2023-04-11T01:51:27.659Z,98076.06
2023-04-11T01:53:54.299Z,98062.13
2023-04-11T01:56:20.847Z,98072.22
2023-04-11T01:58:47.423Z,98072.81
2023-04-11T02:01:18.021Z,98073.03
2023-04-11T02:03:45.222Z,98068.16
2023-04-11T02:06:11.964Z,98072.88
2023-04-11T02:08:38.438Z,98064.41
2023-04-11T02:11:05.273Z,98069.97
2023-04-11T02:13:31.708Z,98066.66
2023-04-11T02:16:16.040Z,98073.19
2023-04-11T02:18:43.918Z,98076.53
2023-04-11T02:21:10.825Z,98079.53
2023-04-11T02:23:37.723Z,98066.84
2023-04-11T02:26:05.771Z,98077.06
2023-04-11T02:28:32.269Z,98088.22
2023-04-11T02:30:58.816Z,98090.59
2023-04-11T02:33:26.182Z,98093.28
2023-04-11T02:35:52.655Z,98094.72
2023-04-11T02:38:20.689Z,98087.66
2023-04-11T02:40:47.520Z,98097.81
2023-04-11T02:43:14.031Z,98081.00
2023-04-11T02:45:41.309Z,98084.06
2023-04-11T02:48:08.479Z,98095.25
2023-04-11T02:50:41.100Z,98088.53
2023-04-11T02:53:08.083Z,98094.16
2023-04-11T02:55:38.058Z,98098.03
2023-04-11T02:58:04.518Z,98091.81
2023-04-11T03:00:31.293Z,98095.41
2023-04-11T03:03:03.426Z,98088.66
2023-04-11T03:05:35.576Z,98093.72
2023-04-11T03:08:02.648Z,98094.44
2023-04-11T03:10:31.203Z,98107.25
2023-04-11T03:12:59.534Z,98116.72
2023-04-11T03:15:26.821Z,98119.81
2023-04-11T03:17:54.557Z,98125.06
2023-04-11T03:20:22.329Z,98132.69
2023-04-11T03:22:52.216Z,98126.34
2023-04-11T03:25:19.867Z,98124.72
2023-04-11T03:27:48.869Z,98123.28
2023-04-11T03:30:15.776Z,98111.91
2023-04-11T03:32:45.560Z,98109.22
2023-04-11T03:35:12.136Z,98105.56
2023-04-11T03:37:43.360Z,98101.91
2023-04-11T03:40:10.343Z,98110.81
2023-04-11T03:42:40.079Z,98109.56
2023-04-11T03:45:09.841Z,98107.22
2023-04-11T03:47:36.503Z,98114.31
2023-04-11T03:50:05.133Z,98112.31
2023-04-11T03:52:38.043Z,98105.75
2023-04-11T03:55:09.961Z,98102.50
2023-04-11T03:57:36.443Z,98105.31
2023-04-11T04:00:05.823Z,98112.72
2023-04-11T04:02:41.804Z,98120.34
2023-04-11T04:05:11.710Z,98132.66
2023-04-11T04:07:39.821Z,98142.22
2023-04-11T04:10:13.098Z,98139.38
2023-04-11T04:12:41.672Z,98151.84
2023-04-11T04:15:14.858Z,98144.56
2023-04-11T04:17:43.681Z,98139.69
2023-04-11T04:20:17.286Z,98143.72
2023-04-11T04:22:48.984Z,98151.03
2023-04-11T04:25:20.172Z,98145.56
2023-04-11T04:27:48.659Z,98146.22
2023-04-11T04:30:15.617Z,98150.13
2023-04-11T04:33:00.802Z,98158.66
2023-04-11T04:35:29.676Z,98172.63
2023-04-11T04:38:06.171Z,98170.63
2023-04-11T04:40:44.799Z,98178.19
2023-04-11T04:43:18.404Z,98167.94
2023-04-11T04:46:08.524Z,98181.25
2023-04-11T04:48:42.328Z,98191.16
2023-04-11T04:51:08.874Z,98179.25
2023-04-11T04:53:38.709Z,98184.56
2023-04-11T04:56:07.316Z,98192.19
2023-04-11T04:58:38.091Z,98194.13
2023-04-11T05:01:09.114Z,98202.91
2023-04-11T05:03:38.582Z,98212.63
2023-04-11T05:06:09.664Z,98209.19
2023-04-11T05:08:37.332Z,98209.19
2023-04-11T05:11:06.450Z,98210.16
2023-04-11T05:13:34.407Z,98208.72
2023-04-11T05:16:02.581Z,98207.63
2023-04-11T05:18:30.532Z,98219.38
2023-04-11T05:20:57.604Z,98216.66
2023-04-11T05:23:29.920Z,98226.28
2023-04-11T05:25:59.928Z,98229.00
2023-04-11T05:28:26.721Z,98229.59
2023-04-11T05:30:53.666Z,98232.22
2023-04-11T05:33:21.714Z,98231.84
2023-04-11T05:35:48.211Z,98230.41
2023-04-11T05:38:14.702Z,98227.97
2023-04-11T05:40:41.133Z,98239.84
2023-04-11T05:43:08.459Z,98241.94
2023-04-11T05:45:34.985Z,98238.34
2023-04-11T05:48:01.549Z,98238.03
2023-04-11T05:50:28.261Z,98250.13
2023-04-11T05:52:54.707Z,98257.72
2023-04-11T05:55:21.138Z,98266.84
2023-04-11T05:57:47.656Z,98270.50
2023-04-11T06:00:16.748Z,98270.16
2023-04-11T06:02:44.275Z,98275.78
2023-04-11T06:05:11.876Z,98278.94
2023-04-11T06:07:39.466Z,98276.22
2023-04-11T06:10:09.366Z,98277.75
2023-04-11T06:12:36.024Z,98281.16
2023-04-11T06:15:02.773Z,98277.31
2023-04-11T06:17:29.329Z,98267.16
2023-04-11T06:19:55.909Z,98278.50
2023-04-11T06:22:22.378Z,98274.78
2023-04-11T06:24:49.013Z,98286.38
2023-04-11T06:27:15.818Z,98288.31
2023-04-11T06:29:45.744Z,98289.91
2023-04-11T06:32:12.434Z,98289.09
2023-04-11T06:34:39.509Z,98301.00
2023-04-11T06:37:08.962Z,98303.09
2023-04-11T06:39:36.116Z,98288.28
2023-04-11T06:42:03.226Z,98293.78
2023-04-11T06:44:31.985Z,98307.66
2023-04-11T06:46:59.282Z,98299.72
2023-04-11T06:49:28.150Z,98304.13
2023-04-11T06:51:55.780Z,98316.63
2023-04-11T06:54:22.824Z,98315.69
2023-04-11T06:56:50.659Z,98311.25
2023-04-11T06:59:19.621Z,98311.25
2023-04-11T07:01:46.537Z,98315.84
2023-04-11T07:04:13.153Z,98315.53
2023-04-11T07:06:39.727Z,98309.41
2023-04-11T07:09:06.909Z,98308.00
2023-04-11T07:11:33.653Z,98297.19
2023-04-11T07:14:00.532Z,98300.19
2023-04-11T07:16:27.255Z,98291.91
2023-04-11T07:18:54.779Z,98283.19
2023-04-11T07:21:21.348Z,98287.66
2023-04-11T07:23:48.388Z,98280.53
2023-04-11T07:26:16.797Z,98283.53
2023-04-11T07:28:45.041Z,98295.00
2023-04-11T07:31:12.345Z,98299.50
2023-04-11T07:33:39.168Z,98299.00
2023-04-11T07:36:06.830Z,98291.09
2023-04-11T07:38:34.217Z,98293.41
2023-04-11T07:41:02.349Z,98304.34
2023-04-11T07:43:29.408Z,98311.72
2023-04-11T07:45:57.421Z,98316.19
2023-04-11T07:48:25.400Z,98303.75
2023-04-11T07:50:52.693Z,98309.41
2023-04-11T07:53:19.236Z,98318.25
2023-04-11T07:55:45.658Z,98319.59
2023-04-11T07:58:12.178Z,98317.03
2023-04-11T08:00:38.750Z,98303.25
2023-04-11T08:03:09.920Z,98300.69
2023-04-11T08:05:37.162Z,98303.56
2023-04-11T08:08:04.941Z,98305.22
2023-04-11T08:10:31.575Z,98317.75
2023-04-11T08:13:01.127Z,98322.47
2023-04-11T08:15:27.585Z,98307.84
2023-04-11T08:17:57.135Z,98308.94
2023-04-11T08:20:24.436Z,98320.03
2023-04-11T08:22:51.090Z,98319.72
2023-04-11T08:25:22.688Z,98338.59
2023-04-11T08:27:50.784Z,98334.19
2023-04-11T08:30:17.835Z,98333.53
2023-04-11T08:32:44.669Z,98329.31
2023-04-11T08:35:11.283Z,98355.81
2023-04-11T08:37:37.900Z,98340.34
2023-04-11T08:40:06.870Z,98348.47
2023-04-11T08:42:34.238Z,98355.78
2023-04-11T08:45:09.225Z,98346.03
2023-04-11T08:47:39.125Z,98339.53
2023-04-11T08:50:06.654Z,98339.97
2023-04-11T08:52:34.021Z,98338.78
2023-04-11T08:55:01.550Z,98343.66
2023-04-11T08:57:33.209Z,98342.72
2023-04-11T09:00:11.868Z,98341.38
2023-04-11T09:03:08.536Z,98348.19
2023-04-11T09:05:36.123Z,98342.25
2023-04-11T09:08:04.915Z,98333.34
2023-04-11T09:10:31.844Z,98334.50
2023-04-11T09:12:59.125Z,98335.63
2023-04-11T09:15:30.681Z,98345.06
2023-04-11T09:18:00.250Z,98354.38
2023-04-11T09:20:30.038Z,98359.69
2023-04-11T09:22:58.805Z,98359.81
2023-04-11T09:25:25.338Z,98355.22
2023-04-11T09:28:07.757Z,98371.47
2023-04-11T09:30:34.936Z,98370.75
2023-04-11T09:33:18.422Z,98378.16
2023-04-11T09:35:47.705Z,98385.75
2023-04-11T09:38:14.158Z,98376.22
2023-04-11T09:40:43.758Z,98372.84
2023-04-11T09:43:10.257Z,98376.97
2023-04-11T09:45:47.658Z,98381.44
2023-04-11T09:48:22.076Z,98380.81
2023-04-11T09:50:53.649Z,98371.88
2023-04-11T09:53:20.686Z,98371.56
2023-04-11T09:55:47.201Z,98362.03
2023-04-11T09:58:14.460Z,98366.31
2023-04-11T10:00:41.522Z,98365.38
2023-04-11T10:03:08.134Z,98375.81
2023-04-11T10:05:34.906Z,98380.91
2023-04-11T10:08:17.265Z,98367.31
2023-04-11T10:10:45.007Z,98353.94
2023-04-11T10:13:40.343Z,98365.44
2023-04-11T10:16:12.185Z,98360.34
2023-04-11T10:19:00.215Z,98365.63
2023-04-11T10:21:37.063Z,98370.94
2023-04-11T10:24:18.267Z,98385.28
2023-04-11T10:26:59.502Z,98378.03
2023-04-11T10:29:40.798Z,98374.47
2023-04-11T10:32:12.222Z,98393.72
2023-04-11T10:34:41.881Z,98396.16
2023-04-11T10:37:09.773Z,98396.53
2023-04-11T10:39:51.679Z,98415.09
2023-04-11T10:42:39.316Z,98423.94
2023-04-11T10:45:21.777Z,98424.34
2023-04-11T10:47:51.325Z,98425.94
2023-04-11T10:50:41.119Z,98414.88
2023-04-11T10:53:36.274Z,98416.22
2023-04-11T10:56:03.213Z,98407.47
2023-04-11T10:58:38.726Z,98401.63
2023-04-11T11:01:25.723Z,98377.44
2023-04-11T11:03:59.451Z,98386.22
2023-04-11T11:06:26.476Z,98388.47
2023-04-11T11:08:53.131Z,98382.16
2023-04-11T11:11:19.770Z,98375.38
2023-04-11T11:13:53.729Z,98380.28
2023-04-11T11:16:25.636Z,98374.06
2023-04-11T11:18:54.621Z,98380.75
2023-04-11T11:21:27.661Z,98372.13
2023-04-11T11:23:55.167Z,98380.38
2023-04-11T11:26:22.161Z,98363.41
2023-04-11T11:28:48.979Z,98351.47
2023-04-11T11:31:15.573Z,98375.00
2023-04-11T11:33:42.185Z,98366.06
2023-04-11T11:36:09.495Z,98371.72
2023-04-11T11:38:37.058Z,98371.81
2023-04-11T11:41:04.436Z,98371.44
2023-04-11T11:43:35.876Z,98367.63
2023-04-11T11:46:11.365Z,98363.19
2023-04-11T11:48:37.989Z,98355.66
2023-04-11T11:51:04.767Z,98360.94
2023-04-11T11:53:31.247Z,98356.56
2023-04-11T11:55:58.132Z,98346.91
2023-04-11T11:58:24.988Z,98357.25
2023-04-11T12:00:52.436Z,98345.50
2023-04-11T12:03:24.015Z,98343.13
2023-04-11T12:05:55.170Z,98342.13
2023-04-11T12:08:24.201Z,98335.13
2023-04-11T12:10:51.412Z,98339.06
2023-04-11T12:13:25.348Z,98338.19
2023-04-11T12:15:55.587Z,98340.22
2023-04-11T12:18:27.484Z,98348.56
2023-04-11T12:20:54.924Z,98349.78
2023-04-11T12:23:21.514Z,98354.47
2023-04-11T12:25:48.119Z,98357.94
2023-04-11T12:28:14.759Z,98356.22
2023-04-11T12:30:41.615Z,98353.59
2023-04-11T12:33:08.151Z,98345.03
2023-04-11T12:35:34.843Z,98346.31
2023-04-11T12:38:01.737Z,98340.13
2023-04-11T12:40:29.774Z,98351.47
2023-04-11T12:42:57.551Z,98344.38
2023-04-11T12:45:24.818Z,98343.72
2023-04-11T12:47:51.391Z,98350.63
2023-04-11T12:50:18.115Z,98349.44
2023-04-11T12:52:44.797Z,98333.47
2023-04-11T12:55:13.192Z,98344.47
2023-04-11T12:57:39.978Z,98350.63
2023-04-11T13:00:08.850Z,98344.50
2023-04-11T13:02:42.235Z,98337.63
2023-04-11T13:05:13.908Z,98352.25
2023-04-11T13:07:41.117Z,98347.75
2023-04-11T13:10:09.227Z,98331.72
2023-04-11T13:12:41.114Z,98339.56
2023-04-11T13:15:09.809Z,98337.53
2023-04-11T13:17:36.470Z,98338.31
2023-04-11T13:20:07.394Z,98333.69
2023-04-11T13:22:34.186Z,98330.25
2023-04-11T13:25:00.663Z,98346.00
2023-04-11T13:27:27.566Z,98346.94
2023-04-11T13:29:54.103Z,98343.41
2023-04-11T13:32:21.033Z,98350.34
2023-04-11T13:34:47.618Z,98356.19
2023-04-11T13:37:14.131Z,98351.34
2023-04-11T13:39:40.693Z,98357.25
2023-04-11T13:42:07.177Z,98352.84
2023-04-11T13:44:33.669Z,98353.09
2023-04-11T13:47:01.229Z,98352.19
2023-04-11T13:49:27.668Z,98349.91
2023-04-11T13:51:54.187Z,98355.31
2023-04-11T13:54:20.666Z,98356.47
2023-04-11T13:56:47.205Z,98353.25
2023-04-11T13:59:13.713Z,98349.34
2023-04-11T14:01:40.497Z,98344.91
2023-04-11T14:04:07.357Z,98347.59
2023-04-11T14:06:35.291Z,98358.22
2023-04-11T14:09:01.740Z,98349.22
2023-04-11T14:11:28.197Z,98343.66
2023-04-11T14:13:54.962Z,98339.72
2023-04-11T14:16:21.587Z,98343.19
2023-04-11T14:18:48.101Z,98354.97
2023-04-11T14:21:14.582Z,98342.16
2023-04-11T14:23:41.382Z,98342.41
2023-04-11T14:26:07.925Z,98336.69
2023-04-11T14:28:34.716Z,98341.56
2023-04-11T14:31:01.333Z,98343.56
2023-04-11T14:33:27.876Z,98330.59
2023-04-11T14:35:54.594Z,98330.09
2023-04-11T14:38:21.110Z,98331.84
2023-04-11T14:40:47.609Z,98329.03
2023-04-11T14:43:14.024Z,98335.19
2023-04-11T14:45:40.598Z,98339.75
2023-04-11T14:48:07.229Z,98321.41
2023-04-11T14:50:33.846Z,98324.53
2023-04-11T14:53:00.939Z,98320.09
2023-04-11T14:55:27.507Z,98316.50
2023-04-11T14:57:56.603Z,98315.38
2023-04-11T15:00:24.759Z,98319.38
2023-04-11T15:02:56.489Z,98316.66
2023-04-11T15:05:23.778Z,98316.94
2023-04-11T15:07:51.866Z,98305.34
2023-04-11T15:10:20.387Z,98305.00
2023-04-11T15:12:47.086Z,98305.28
2023-04-11T15:15:14.064Z,98300.16
2023-04-11T15:17:43.006Z,98304.78
2023-04-11T15:20:11.695Z,98296.22
2023-04-11T15:22:43.666Z,98287.56
2023-04-11T15:25:15.501Z,98298.06
2023-04-11T15:27:42.734Z,98302.91
2023-04-11T15:30:10.391Z,98290.38
2023-04-11T15:32:42.023Z,98295.31
2023-04-11T15:35:09.135Z,98295.59
2023-04-11T15:37:35.680Z,98297.00
2023-04-11T15:40:05.914Z,98290.81
2023-04-11T15:42:35.342Z,98295.06
2023-04-11T15:45:02.447Z,98297.09
2023-04-11T15:47:29.253Z,98293.22
2023-04-11T15:49:56.268Z,98292.97
2023-04-11T15:52:22.926Z,98289.63
2023-04-11T15:54:49.452Z,98296.66
2023-04-11T15:57:18.314Z,98289.56
2023-04-11T15:59:45.642Z,98289.28
2023-04-11T16:02:12.490Z,98297.34
2023-04-11T16:04:39.245Z,98287.22
2023-04-11T16:07:06.642Z,98290.56
2023-04-11T16:09:34.682Z,98291.03
2023-04-11T16:12:01.740Z,98286.88
2023-04-11T16:14:29.218Z,98292.72
2023-04-11T16:16:57.533Z,98292.72
2023-04-11T16:19:24.101Z,98295.97
2023-04-11T16:21:50.936Z,98292.44
2023-04-11T16:24:18.880Z,98285.69
2023-04-11T16:26:45.656Z,98285.34
2023-04-11T16:29:12.198Z,98272.72
2023-04-11T16:31:38.713Z,98275.22
2023-04-11T16:34:05.332Z,98275.44
2023-04-11T16:36:32.071Z,98270.50
2023-04-11T16:38:58.602Z,98265.44
2023-04-11T16:41:25.347Z,98258.78
2023-04-11T16:43:52.063Z,98260.03
2023-04-11T16:46:18.742Z,98260.63
2023-04-11T16:48:45.420Z,98255.31
2023-04-11T16:51:13.154Z,98255.75
2023-04-11T16:53:40.854Z,98253.59
2023-04-11T16:56:07.580Z,98255.44
2023-04-11T16:58:34.428Z,98263.22
2023-04-11T17:01:01.807Z,98263.03
2023-04-11T17:03:28.797Z,98261.63
2023-04-11T17:05:55.959Z,98253.69
2023-04-11T17:08:23.920Z,98253.69
2023-04-11T17:10:50.497Z,98259.84
2023-04-11T17:13:18.596Z,98257.25
2023-04-11T17:15:45.966Z,98251.16
2023-04-11T17:18:14.862Z,98253.00
2023-04-11T17:20:43.417Z,98256.28
2023-04-11T17:23:10.197Z,98252.66
2023-04-11T17:25:36.744Z,98246.75
2023-04-11T17:28:03.354Z,98245.94
2023-04-11T17:30:30.928Z,98245.75
2023-04-11T17:32:57.708Z,98244.38
2023-04-11T17:35:24.295Z,98239.66
2023-04-11T17:37:50.870Z,98251.28
2023-04-11T17:40:17.587Z,98244.81
2023-04-11T17:42:45.771Z,98238.72
2023-04-11T17:45:17.155Z,98243.59
2023-04-11T17:47:44.728Z,98242.38
2023-04-11T17:50:13.282Z,98239.94
2023-04-11T17:52:44.300Z,98240.69
2023-04-11T17:55:12.922Z,98248.22
2023-04-11T17:57:39.819Z,98249.47
2023-04-11T18:00:28.170Z,98251.72
2023-04-11T18:02:59.904Z,98253.75
2023-04-11T18:05:29.049Z,98251.06
2023-04-11T18:07:57.443Z,98247.22
2023-04-11T18:10:25.874Z,98244.78
2023-04-11T18:12:53.907Z,98245.75
2023-04-11T18:15:21.818Z,98242.44
2023-04-11T18:17:48.416Z,98246.25
2023-04-11T18:20:15.427Z,98251.16
2023-04-11T18:22:44.800Z,98246.72
2023-04-11T18:25:11.770Z,98245.88
2023-04-11T18:27:39.573Z,98238.34
2023-04-11T18:30:16.229Z,98247.06
2023-04-11T18:32:49.081Z,98247.72
2023-04-11T18:35:17.172Z,98242.72
2023-04-11T18:37:43.975Z,98248.13
2023-04-11T18:40:13.856Z,98247.41
2023-04-11T18:42:42.485Z,98249.72
2023-04-11T18:45:11.422Z,98243.91
2023-04-11T18:47:39.803Z,98250.94
2023-04-11T18:50:07.291Z,98251.75
2023-04-11T18:52:34.972Z,98249.00
2023-04-11T18:55:01.671Z,98241.97
2023-04-11T18:57:32.807Z,98243.03
2023-04-11T19:02:35.365Z,98235.03
2023-04-11T19:05:02.137Z,98235.72
2023-04-11T19:07:28.998Z,98235.13
2023-04-11T19:09:55.529Z,98226.91
2023-04-11T19:12:22.005Z,98227.06
2023-04-11T19:14:48.551Z,98225.38
2023-04-11T19:17:15.268Z,98226.41
2023-04-11T19:19:43.210Z,98229.47
2023-04-11T19:22:09.720Z,98232.03
2023-04-11T19:24:36.306Z,98228.81
2023-04-11T19:27:02.973Z,98218.13
2023-04-11T19:29:29.472Z,98217.09
2023-04-11T19:31:56.000Z,98216.56
2023-04-11T19:34:22.808Z,98214.88
2023-04-11T19:36:49.254Z,98217.28
2023-04-11T19:39:15.722Z,98206.19
2023-04-11T19:41:46.370Z,98200.84
2023-04-11T19:44:13.381Z,98198.50
2023-04-11T19:46:40.149Z,98194.84
2023-04-11T19:49:06.818Z,98185.75
2023-04-11T19:51:33.423Z,98182.91
2023-04-11T19:54:00.044Z,98186.56
2023-04-11T19:56:26.613Z,98178.03
2023-04-11T19:58:53.288Z,98172.25
2023-04-11T20:01:19.937Z,98172.19
2023-04-11T20:03:46.553Z,98174.91
2023-04-11T20:06:13.613Z,98173.28
2023-04-11T20:08:40.132Z,98169.84
2023-04-11T20:11:06.658Z,98164.91
2023-04-11T20:13:33.918Z,98163.72
2023-04-11T20:16:04.557Z,98152.50
2023-04-11T20:18:31.390Z,98152.31
2023-04-11T20:20:58.258Z,98150.69
2023-04-11T20:23:24.821Z,98145.03
2023-04-11T20:25:51.387Z,98142.59
2023-04-11T20:28:18.129Z,98136.91
2023-04-11T20:30:44.680Z,98144.06
2023-04-11T20:33:11.447Z,98136.72
2023-04-11T20:35:38.109Z,98130.97
2023-04-11T20:38:04.631Z,98131.72
2023-04-11T20:40:31.190Z,98127.78
2023-04-11T20:43:00.184Z,98119.13
2023-04-11T20:45:27.910Z,98116.97
2023-04-11T20:47:55.436Z,98115.78
2023-04-11T20:50:21.929Z,98117.38
2023-04-11T20:52:51.256Z,98114.00
2023-04-11T20:55:18.010Z,98117.41
2023-04-11T20:57:47.415Z,98103.81
2023-04-11T21:00:14.335Z,98105.28
2023-04-11T21:02:43.980Z,98093.41
2023-04-11T21:05:11.930Z,98086.59
2023-04-11T21:07:39.444Z,98084.53
2023-04-11T21:10:07.419Z,98081.94
2023-04-11T21:12:34.740Z,98081.16
2023-04-11T21:15:02.418Z,98077.03
2023-04-11T21:17:32.734Z,98077.09
2023-04-11T21:20:00.218Z,98066.50
2023-04-11T21:22:26.917Z,98067.16
2023-04-11T21:24:53.347Z,98062.25
2023-04-11T21:27:19.791Z,98049.50
2023-04-11T21:29:46.209Z,98047.56
2023-04-11T21:32:12.660Z,98036.97
2023-04-11T21:34:39.133Z,98030.34
2023-04-11T21:37:05.656Z,98037.94
2023-04-11T21:39:32.112Z,98030.25
2023-04-11T21:41:58.599Z,98030.28
2023-04-11T21:44:25.053Z,98014.28
2023-04-11T21:46:51.818Z,98017.41
2023-04-11T21:49:18.448Z,98015.91
2023-04-11T21:51:44.895Z,98012.34
2023-04-11T21:54:11.368Z,98005.66
2023-04-11T21:56:37.878Z,98016.97
2023-04-11T21:59:04.321Z,98003.69
2023-04-11T22:01:30.868Z,98006.44
2023-04-11T22:03:58.949Z,98000.69
2023-04-11T22:06:26.603Z,97992.81
2023-04-11T22:08:53.115Z,97991.25
2023-04-11T22:11:20.303Z,97981.84
2023-04-11T22:13:46.920Z,97982.66
2023-04-11T22:16:14.136Z,97982.34
2023-04-11T22:18:47.039Z,97973.81
2023-04-11T22:21:20.546Z,97977.53
2023-04-11T22:23:54.756Z,97978.00
2023-04-11T22:26:29.177Z,97980.00
2023-04-11T22:28:58.314Z,97969.53
2023-04-11T22:31:30.646Z,97976.38
2023-04-11T22:33:57.727Z,97974.75
2023-04-11T22:36:24.644Z,97970.34
2023-04-11T22:38:51.110Z,97959.59
2023-04-11T22:41:17.671Z,97968.09
2023-04-11T22:43:44.576Z,97970.53
2023-04-11T22:46:11.250Z,97968.56
2023-04-11T22:48:37.831Z,97959.81
2023-04-11T22:51:05.919Z,97967.31
2023-04-11T22:53:34.162Z,97968.56
2023-04-11T22:56:01.982Z,97958.13
2023-04-11T22:58:28.490Z,97942.84
2023-04-11T23:00:55.622Z,97951.69
2023-04-11T23:03:22.181Z,97949.81
2023-04-11T23:05:48.759Z,97948.63
2023-04-11T23:08:15.262Z,97954.16
2023-04-11T23:10:42.551Z,97955.41
2023-04-11T23:13:09.274Z,97948.47
2023-04-11T23:15:37.275Z,97942.84
2023-04-11T23:18:03.881Z,97944.91
2023-04-11T23:20:30.461Z,97938.56
2023-04-11T23:22:58.334Z,97943.38
2023-04-11T23:25:25.230Z,97937.69
2023-04-11T23:27:52.546Z,97936.72
2023-04-11T23:30:20.041Z,97936.59
2023-04-11T23:32:47.111Z,97936.56
2023-04-11T23:35:16.663Z,97940.88
2023-04-11T23:37:43.381Z,97929.13
2023-04-11T23:40:11.108Z,97932.50
2023-04-11T23:42:38.539Z,97934.03
2023-04-11T23:45:06.620Z,97926.88
2023-04-11T23:47:33.709Z,97921.22
2023-04-11T23:50:02.038Z,97926.38
2023-04-11T23:52:29.140Z,97916.69
2023-04-11T23:54:56.408Z,97918.22
2023-04-11T23:57:23.416Z,97916.28
2023-04-11T23:59:49.854Z,97905.22
